sensor_id;sensor_type;location;lat;lon;timestamp;pressure;altitude;pressure_sealevel;temperature;humidity
498;BME280;39559;48.630;9.162;2023-08-24T00:00:25;97676.19;;;15.90;100.00
498;BME280;39559;48.630;9.162;2023-08-24T00:02:50;97679.63;;;15.91;100.00
498;BME280;39559;48.630;9.162;2023-08-24T00:05:16;97678.22;;;15.85;100.00
498;BME280;39559;48.630;9.162;2023-08-24T00:07:42;97683.38;;;15.87;100.00
498;BME280;39559;48.630;9.162;2023-08-24T00:10:07;97689.09;;;15.93;100.00
498;BME280;39559;48.630;9.162;2023-08-24T00:12:33;97690.09;;;15.91;100.00
498;BME280;39559;48.630;9.162;2023-08-24T00:15:00;97689.34;;;15.74;100.00
498;BME280;39559;48.630;9.162;2023-08-24T00:19:25;97692.41;;;15.67;100.00
498;BME280;39559;48.630;9.162;2023-08-24T00:21:50;97690.28;;;15.73;100.00
498;BME280;39559;48.630;9.162;2023-08-24T00:24:16;97689.63;;;15.70;100.00
498;BME280;39559;48.630;9.162;2023-08-24T00:26:42;97690.53;;;15.69;100.00
498;BME280;39559;48.630;9.162;2023-08-24T00:29:07;97686.44;;;15.65;100.00
498;BME280;39559;48.630;9.162;2023-08-24T00:31:42;97680.44;;;15.63;100.00
498;BME280;39559;48.630;9.162;2023-08-24T00:34:08;97677.06;;;15.61;100.00
498;BME280;39559;48.630;9.162;2023-08-24T00:36:33;97668.47;;;15.73;100.00
498;BME280;39559;48.630;9.162;2023-08-24T00:38:59;97668.44;;;15.59;100.00
498;BME280;39559;48.630;9.162;2023-08-24T00:43:20;97664.81;;;15.47;100.00
498;BME280;39559;48.630;9.162;2023-08-24T00:45:53;97671.03;;;15.44;100.00
498;BME280;39559;48.630;9.162;2023-08-24T00:48:21;97656.88;;;15.48;100.00
498;BME280;39559;48.630;9.162;2023-08-24T00:50:52;97657.97;;;15.44;100.00
498;BME280;39559;48.630;9.162;2023-08-24T00:53:19;97656.31;;;15.58;100.00
498;BME280;39559;48.630;9.162;2023-08-24T00:55:45;97648.66;;;15.69;100.00
498;BME280;39559;48.630;9.162;2023-08-24T00:58:13;97645.38;;;15.65;100.00
498;BME280;39559;48.630;9.162;2023-08-24T01:00:39;97646.03;;;15.54;100.00
498;BME280;39559;48.630;9.162;2023-08-24T01:03:04;97642.25;;;15.44;100.00
498;BME280;39559;48.630;9.162;2023-08-24T01:07:16;97635.72;;;15.37;100.00
498;BME280;39559;48.630;9.162;2023-08-24T01:09:43;97638.25;;;15.39;100.00
498;BME280;39559;48.630;9.162;2023-08-24T01:15:13;97636.94;;;15.46;100.00
498;BME280;39559;48.630;9.162;2023-08-24T01:17:43;97642.00;;;15.49;100.00
498;BME280;39559;48.630;9.162;2023-08-24T01:20:10;97644.44;;;15.52;100.00
498;BME280;39559;48.630;9.162;2023-08-24T01:28:01;97636.72;;;15.20;100.00
498;BME280;39559;48.630;9.162;2023-08-24T01:31:10;97631.22;;;15.25;100.00
498;BME280;39559;48.630;9.162;2023-08-24T01:33:35;97626.16;;;15.22;100.00
498;BME280;39559;48.630;9.162;2023-08-24T01:36:01;97622.25;;;15.29;100.00
498;BME280;39559;48.630;9.162;2023-08-24T01:38:30;97621.53;;;15.41;100.00
498;BME280;39559;48.630;9.162;2023-08-24T01:41:24;97622.53;;;15.39;100.00
498;BME280;39559;48.630;9.162;2023-08-24T01:43:55;97622.09;;;15.32;100.00
498;BME280;39559;48.630;9.162;2023-08-24T01:46:24;97624.22;;;15.25;100.00
498;BME280;39559;48.630;9.162;2023-08-24T01:48:52;97612.44;;;15.18;100.00
498;BME280;39559;48.630;9.162;2023-08-24T01:51:26;97618.41;;;15.20;100.00
498;BME280;39559;48.630;9.162;2023-08-24T01:55:05;97623.56;;;15.22;100.00
498;BME280;39559;48.630;9.162;2023-08-24T01:57:31;97620.66;;;15.12;100.00
498;BME280;39559;48.630;9.162;2023-08-24T01:59:57;97618.69;;;15.15;100.00
498;BME280;39559;48.630;9.162;2023-08-24T02:02:23;97622.72;;;15.21;100.00
498;BME280;39559;48.630;9.162;2023-08-24T02:04:49;97607.19;;;15.18;100.00
498;BME280;39559;48.630;9.162;2023-08-24T02:07:15;97618.69;;;15.15;100.00
498;BME280;39559;48.630;9.162;2023-08-24T02:09:41;97614.94;;;15.20;100.00
498;BME280;39559;48.630;9.162;2023-08-24T02:12:06;97616.81;;;15.18;100.00
498;BME280;39559;48.630;9.162;2023-08-24T02:14:32;97621.03;;;15.20;100.00
498;BME280;39559;48.630;9.162;2023-08-24T02:19:01;97612.81;;;15.12;100.00
498;BME280;39559;48.630;9.162;2023-08-24T02:21:27;97605.97;;;15.09;100.00
498;BME280;39559;48.630;9.162;2023-08-24T02:23:53;97604.88;;;15.13;100.00
498;BME280;39559;48.630;9.162;2023-08-24T02:26:18;97608.50;;;15.11;100.00
498;BME280;39559;48.630;9.162;2023-08-24T02:28:53;97607.16;;;15.04;100.00
498;BME280;39559;48.630;9.162;2023-08-24T02:31:19;97605.88;;;15.11;100.00
498;BME280;39559;48.630;9.162;2023-08-24T02:33:45;97616.63;;;15.21;100.00
498;BME280;39559;48.630;9.162;2023-08-24T02:36:10;97613.34;;;15.17;100.00
498;BME280;39559;48.630;9.162;2023-08-24T02:38:36;97607.81;;;15.07;100.00
498;BME280;39559;48.630;9.162;2023-08-24T02:42:55;97606.50;;;15.00;100.00
498;BME280;39559;48.630;9.162;2023-08-24T02:45:21;97615.38;;;14.97;100.00
498;BME280;39559;48.630;9.162;2023-08-24T02:47:47;97614.81;;;14.92;100.00
498;BME280;39559;48.630;9.162;2023-08-24T02:50:12;97619.44;;;14.87;100.00
498;BME280;39559;48.630;9.162;2023-08-24T02:52:38;97606.22;;;14.90;100.00
498;BME280;39559;48.630;9.162;2023-08-24T02:55:04;97607.78;;;14.93;100.00
498;BME280;39559;48.630;9.162;2023-08-24T02:57:34;97603.38;;;14.93;100.00
498;BME280;39559;48.630;9.162;2023-08-24T03:00:01;97597.25;;;14.94;100.00
498;BME280;39559;48.630;9.162;2023-08-24T03:02:28;97589.22;;;14.97;100.00
498;BME280;39559;48.630;9.162;2023-08-24T03:06:51;97586.41;;;15.01;100.00
498;BME280;39559;48.630;9.162;2023-08-24T03:09:16;97590.16;;;14.96;100.00
498;BME280;39559;48.630;9.162;2023-08-24T03:11:42;97595.47;;;14.95;100.00
498;BME280;39559;48.630;9.162;2023-08-24T03:14:07;97605.28;;;15.06;100.00
498;BME280;39559;48.630;9.162;2023-08-24T03:16:34;97607.81;;;15.07;100.00
498;BME280;39559;48.630;9.162;2023-08-24T03:18:59;97609.53;;;15.08;100.00
498;BME280;39559;48.630;9.162;2023-08-24T03:21:25;97596.16;;;15.13;100.00
498;BME280;39559;48.630;9.162;2023-08-24T03:23:51;97593.38;;;15.16;100.00
498;BME280;39559;48.630;9.162;2023-08-24T03:26:17;97573.72;;;14.94;100.00
498;BME280;39559;48.630;9.162;2023-08-24T03:30:53;97576.59;;;14.90;100.00
498;BME280;39559;48.630;9.162;2023-08-24T03:33:22;97577.34;;;14.92;100.00
498;BME280;39559;48.630;9.162;2023-08-24T03:35:49;97573.03;;;14.91;100.00
498;BME280;39559;48.630;9.162;2023-08-24T03:38:15;97572.47;;;14.86;100.00
498;BME280;39559;48.630;9.162;2023-08-24T03:40:41;97575.31;;;14.67;100.00
498;BME280;39559;48.630;9.162;2023-08-24T03:43:06;97566.94;;;14.76;100.00
498;BME280;39559;48.630;9.162;2023-08-24T03:45:32;97564.50;;;14.73;100.00
498;BME280;39559;48.630;9.162;2023-08-24T03:47:58;97574.03;;;14.74;100.00
498;BME280;39559;48.630;9.162;2023-08-24T03:50:23;97570.56;;;14.73;100.00
498;BME280;39559;48.630;9.162;2023-08-24T03:54:42;97557.91;;;14.82;100.00
498;BME280;39559;48.630;9.162;2023-08-24T03:57:08;97548.47;;;14.79;100.00
498;BME280;39559;48.630;9.162;2023-08-24T03:59:33;97547.91;;;14.74;100.00
498;BME280;39559;48.630;9.162;2023-08-24T04:01:59;97533.34;;;14.70;100.00
498;BME280;39559;48.630;9.162;2023-08-24T04:04:30;97538.38;;;14.73;100.00
498;BME280;39559;48.630;9.162;2023-08-24T04:06:55;97545.28;;;14.74;100.00
498;BME280;39559;48.630;9.162;2023-08-24T04:09:21;97547.91;;;14.74;100.00
498;BME280;39559;48.630;9.162;2023-08-24T04:11:47;97549.94;;;14.69;100.00
498;BME280;39559;48.630;9.162;2023-08-24T04:14:13;97546.88;;;14.76;100.00
498;BME280;39559;48.630;9.162;2023-08-24T04:18:37;97541.97;;;14.86;100.00
498;BME280;39559;48.630;9.162;2023-08-24T04:21:05;97535.19;;;14.82;100.00
498;BME280;39559;48.630;9.162;2023-08-24T04:23:31;97535.50;;;14.77;100.00
498;BME280;39559;48.630;9.162;2023-08-24T04:25:56;97528.09;;;14.84;100.00
498;BME280;39559;48.630;9.162;2023-08-24T04:28:23;97535.78;;;14.87;100.00
498;BME280;39559;48.630;9.162;2023-08-24T04:30:53;97541.38;;;14.81;100.00
498;BME280;39559;48.630;9.162;2023-08-24T04:33:22;97531.66;;;14.83;100.00
498;BME280;39559;48.630;9.162;2023-08-24T04:35:49;97531.38;;;14.88;100.00
498;BME280;39559;48.630;9.162;2023-08-24T04:38:18;97534.78;;;14.90;100.00
498;BME280;39559;48.630;9.162;2023-08-24T04:42:33;97520.09;;;15.02;100.00
498;BME280;39559;48.630;9.162;2023-08-24T04:44:59;97516.75;;;15.00;100.00
498;BME280;39559;48.630;9.162;2023-08-24T04:47:25;97512.72;;;14.94;100.00
498;BME280;39559;48.630;9.162;2023-08-24T04:49:50;97517.75;;;14.97;100.00
498;BME280;39559;48.630;9.162;2023-08-24T04:52:16;97515.44;;;14.92;100.00
498;BME280;39559;48.630;9.162;2023-08-24T04:54:41;97514.59;;;14.92;100.00
498;BME280;39559;48.630;9.162;2023-08-24T04:57:07;97508.06;;;14.99;100.00
498;BME280;39559;48.630;9.162;2023-08-24T04:59:33;97507.94;;;15.01;100.00
498;BME280;39559;48.630;9.162;2023-08-24T05:01:59;97509.38;;;15.06;100.00
498;BME280;39559;48.630;9.162;2023-08-24T05:06:29;97507.03;;;15.02;100.00
498;BME280;39559;48.630;9.162;2023-08-24T05:08:55;97504.25;;;15.05;100.00
498;BME280;39559;48.630;9.162;2023-08-24T05:11:23;97508.53;;;15.06;100.00
498;BME280;39559;48.630;9.162;2023-08-24T05:13:52;97510.88;;;15.10;100.00
498;BME280;39559;48.630;9.162;2023-08-24T05:16:17;97510.97;;;15.23;100.00
498;BME280;39559;48.630;9.162;2023-08-24T05:18:43;97507.50;;;15.37;100.00
498;BME280;39559;48.630;9.162;2023-08-24T05:21:09;97498.06;;;15.34;100.00
498;BME280;39559;48.630;9.162;2023-08-24T05:23:35;97500.69;;;15.34;100.00
498;BME280;39559;48.630;9.162;2023-08-24T05:26:01;97503.69;;;15.43;100.00
498;BME280;39559;48.630;9.162;2023-08-24T05:30:25;97503.63;;;15.57;100.00
498;BME280;39559;48.630;9.162;2023-08-24T05:32:54;97497.72;;;15.68;100.00
498;BME280;39559;48.630;9.162;2023-08-24T05:35:20;97503.38;;;15.76;100.00
498;BME280;39559;48.630;9.162;2023-08-24T05:37:47;97494.19;;;15.83;100.00
498;BME280;39559;48.630;9.162;2023-08-24T05:40:13;97499.56;;;15.95;100.00
498;BME280;39559;48.630;9.162;2023-08-24T05:42:38;97495.09;;;16.09;100.00
498;BME280;39559;48.630;9.162;2023-08-24T05:45:04;97489.03;;;16.09;100.00
498;BME280;39559;48.630;9.162;2023-08-24T05:47:30;97478.75;;;16.06;100.00
498;BME280;39559;48.630;9.162;2023-08-24T05:49:56;97477.50;;;16.11;100.00
498;BME280;39559;48.630;9.162;2023-08-24T05:54:21;97476.91;;;16.21;100.00
498;BME280;39559;48.630;9.162;2023-08-24T05:56:47;97467.94;;;16.25;100.00
498;BME280;39559;48.630;9.162;2023-08-24T05:59:13;97471.91;;;16.30;100.00
498;BME280;39559;48.630;9.162;2023-08-24T06:01:39;97467.41;;;16.33;100.00
498;BME280;39559;48.630;9.162;2023-08-24T06:04:07;97471.94;;;16.43;100.00
498;BME280;39559;48.630;9.162;2023-08-24T06:06:33;97470.50;;;16.52;100.00
498;BME280;39559;48.630;9.162;2023-08-24T06:08:58;97476.16;;;16.59;100.00
498;BME280;39559;48.630;9.162;2023-08-24T06:11:24;97475.31;;;16.71;100.00
498;BME280;39559;48.630;9.162;2023-08-24T06:13:49;97480.19;;;16.77;100.00
498;BME280;39559;48.630;9.162;2023-08-24T06:18:16;97474.00;;;16.91;100.00
498;BME280;39559;48.630;9.162;2023-08-24T06:20:42;97477.25;;;16.95;100.00
498;BME280;39559;48.630;9.162;2023-08-24T06:23:07;97476.72;;;17.02;100.00
498;BME280;39559;48.630;9.162;2023-08-24T06:25:33;97475.16;;;17.00;100.00
498;BME280;39559;48.630;9.162;2023-08-24T06:28:00;97479.56;;;17.12;100.00
498;BME280;39559;48.630;9.162;2023-08-24T06:30:29;97480.59;;;17.22;100.00
498;BME280;39559;48.630;9.162;2023-08-24T06:32:58;97484.56;;;17.28;100.00
498;BME280;39559;48.630;9.162;2023-08-24T06:35:24;97485.63;;;17.25;100.00
498;BME280;39559;48.630;9.162;2023-08-24T06:37:49;97483.53;;;17.18;100.00
498;BME280;39559;48.630;9.162;2023-08-24T06:42:13;97482.69;;;17.30;100.00
498;BME280;39559;48.630;9.162;2023-08-24T06:44:38;97487.28;;;17.52;100.00
498;BME280;39559;48.630;9.162;2023-08-24T06:47:04;97494.50;;;17.61;100.00
498;BME280;39559;48.630;9.162;2023-08-24T06:49:30;97492.06;;;17.58;100.00
498;BME280;39559;48.630;9.162;2023-08-24T06:51:55;97499.75;;;17.61;100.00
498;BME280;39559;48.630;9.162;2023-08-24T06:54:21;97510.13;;;17.76;100.00
498;BME280;39559;48.630;9.162;2023-08-24T06:56:55;97513.97;;;17.83;100.00
498;BME280;39559;48.630;9.162;2023-08-24T06:59:21;97520.16;;;17.82;100.00
498;BME280;39559;48.630;9.162;2023-08-24T07:01:47;97518.59;;;17.92;100.00
498;BME280;39559;48.630;9.162;2023-08-24T07:06:09;97535.88;;;18.08;100.00
498;BME280;39559;48.630;9.162;2023-08-24T07:08:41;97547.25;;;18.08;100.00
498;BME280;39559;48.630;9.162;2023-08-24T07:11:07;97547.84;;;18.12;100.00
498;BME280;39559;48.630;9.162;2023-08-24T07:13:32;97544.00;;;18.29;100.00
498;BME280;39559;48.630;9.162;2023-08-24T07:15:58;97535.22;;;18.17;100.00
498;BME280;39559;48.630;9.162;2023-08-24T07:18:24;97526.94;;;18.34;100.00
498;BME280;39559;48.630;9.162;2023-08-24T07:20:54;97525.06;;;18.48;100.00
498;BME280;39559;48.630;9.162;2023-08-24T07:23:19;97515.59;;;18.69;100.00
498;BME280;39559;48.630;9.162;2023-08-24T07:25:45;97507.59;;;18.71;100.00
498;BME280;39559;48.630;9.162;2023-08-24T07:30:05;97502.53;;;18.68;100.00
498;BME280;39559;48.630;9.162;2023-08-24T07:32:31;97494.72;;;18.55;100.00
498;BME280;39559;48.630;9.162;2023-08-24T07:34:57;97487.63;;;18.68;100.00
498;BME280;39559;48.630;9.162;2023-08-24T07:37:32;97488.16;;;18.85;100.00
498;BME280;39559;48.630;9.162;2023-08-24T07:39:58;97491.53;;;18.98;100.00
498;BME280;39559;48.630;9.162;2023-08-24T07:42:23;97482.56;;;19.12;100.00
498;BME280;39559;48.630;9.162;2023-08-24T07:44:49;97470.13;;;19.25;100.00
498;BME280;39559;48.630;9.162;2023-08-24T07:47:15;97468.66;;;19.44;100.00
498;BME280;39559;48.630;9.162;2023-08-24T07:49:41;97468.19;;;19.61;100.00
498;BME280;39559;48.630;9.162;2023-08-24T07:54:02;97484.19;;;19.92;100.00
498;BME280;39559;48.630;9.162;2023-08-24T07:56:31;97481.22;;;20.18;100.00
498;BME280;39559;48.630;9.162;2023-08-24T07:58:57;97482.72;;;20.31;100.00
498;BME280;39559;48.630;9.162;2023-08-24T08:01:23;97484.34;;;20.44;100.00
498;BME280;39559;48.630;9.162;2023-08-24T08:03:48;97487.50;;;20.59;100.00
498;BME280;39559;48.630;9.162;2023-08-24T08:06:14;97491.66;;;20.73;100.00
498;BME280;39559;48.630;9.162;2023-08-24T08:08:40;97488.97;;;20.84;100.00
498;BME280;39559;48.630;9.162;2023-08-24T08:11:05;97491.66;;;20.94;100.00
498;BME280;39559;48.630;9.162;2023-08-24T08:13:31;97491.66;;;20.94;100.00
498;BME280;39559;48.630;9.162;2023-08-24T08:17:56;97495.38;;;21.12;100.00
498;BME280;39559;48.630;9.162;2023-08-24T08:20:22;97490.47;;;21.38;100.00
498;BME280;39559;48.630;9.162;2023-08-24T08:22:47;97495.88;;;21.58;100.00
498;BME280;39559;48.630;9.162;2023-08-24T08:25:13;97497.59;;;21.78;100.00
498;BME280;39559;48.630;9.162;2023-08-24T08:27:39;97496.09;;;21.85;100.00
498;BME280;39559;48.630;9.162;2023-08-24T08:30:05;97494.59;;;22.12;100.00
498;BME280;39559;48.630;9.162;2023-08-24T08:32:31;97498.06;;;22.22;100.00
498;BME280;39559;48.630;9.162;2023-08-24T08:34:57;97486.28;;;22.46;100.00
498;BME280;39559;48.630;9.162;2023-08-24T08:37:24;97493.50;;;22.83;100.00
498;BME280;39559;48.630;9.162;2023-08-24T08:41:52;97488.84;;;23.05;100.00
498;BME280;39559;48.630;9.162;2023-08-24T08:44:18;97489.81;;;23.13;100.00
498;BME280;39559;48.630;9.162;2023-08-24T08:46:53;97488.16;;;23.12;100.00
498;BME280;39559;48.630;9.162;2023-08-24T08:49:19;97481.41;;;23.28;100.00
498;BME280;39559;48.630;9.162;2023-08-24T08:51:50;97478.97;;;23.44;100.00
498;BME280;39559;48.630;9.162;2023-08-24T08:54:17;97475.53;;;23.62;100.00
498;BME280;39559;48.630;9.162;2023-08-24T08:56:43;97472.97;;;24.33;100.00
498;BME280;39559;48.630;9.162;2023-08-24T08:59:09;97469.88;;;24.56;100.00
498;BME280;39559;48.630;9.162;2023-08-24T09:01:37;97477.81;;;24.02;100.00
498;BME280;39559;48.630;9.162;2023-08-24T09:05:57;97471.22;;;24.06;100.00
498;BME280;39559;48.630;9.162;2023-08-24T09:08:25;97472.00;;;24.17;100.00
498;BME280;39559;48.630;9.162;2023-08-24T09:10:50;97467.22;;;24.38;100.00
498;BME280;39559;48.630;9.162;2023-08-24T09:13:17;97460.16;;;24.47;100.00
498;BME280;39559;48.630;9.162;2023-08-24T09:15:51;97455.28;;;24.78;97.77
498;BME280;39559;48.630;9.162;2023-08-24T09:18:17;97443.38;;;24.64;100.00
498;BME280;39559;48.630;9.162;2023-08-24T09:20:42;97454.22;;;24.71;99.20
498;BME280;39559;48.630;9.162;2023-08-24T09:23:17;97442.88;;;24.87;100.00
498;BME280;39559;48.630;9.162;2023-08-24T09:25:46;97431.06;;;25.42;100.00
498;BME280;39559;48.630;9.162;2023-08-24T09:29:41;97421.03;;;25.36;96.00
498;BME280;39559;48.630;9.162;2023-08-24T09:32:10;97409.53;;;25.70;93.89
498;BME280;39559;48.630;9.162;2023-08-24T09:34:36;97414.69;;;25.71;94.59
498;BME280;39559;48.630;9.162;2023-08-24T09:37:02;97406.56;;;25.73;93.92
498;BME280;39559;48.630;9.162;2023-08-24T09:39:31;97405.63;;;25.98;95.83
498;BME280;39559;48.630;9.162;2023-08-24T09:42:00;97401.25;;;25.89;94.66
498;BME280;39559;48.630;9.162;2023-08-24T09:44:29;97405.44;;;26.08;95.21
498;BME280;39559;48.630;9.162;2023-08-24T09:46:54;97399.00;;;26.11;91.72
498;BME280;39559;48.630;9.162;2023-08-24T09:49:20;97392.00;;;26.26;90.39
498;BME280;39559;48.630;9.162;2023-08-24T09:53:41;97380.66;;;26.49;88.30
498;BME280;39559;48.630;9.162;2023-08-24T09:56:08;97362.53;;;26.44;89.80
498;BME280;39559;48.630;9.162;2023-08-24T09:58:35;97370.47;;;26.52;89.68
498;BME280;39559;48.630;9.162;2023-08-24T10:01:01;97354.81;;;26.74;87.46
498;BME280;39559;48.630;9.162;2023-08-24T10:03:30;97354.00;;;26.81;90.94
498;BME280;39559;48.630;9.162;2023-08-24T10:05:58;97347.75;;;26.97;87.95
498;BME280;39559;48.630;9.162;2023-08-24T10:08:39;97344.84;;;27.15;87.49
498;BME280;39559;48.630;9.162;2023-08-24T10:11:08;97337.03;;;27.14;90.59
498;BME280;39559;48.630;9.162;2023-08-24T10:14:05;97331.41;;;27.09;85.81
498;BME280;39559;48.630;9.162;2023-08-24T10:17:36;97318.28;;;27.38;87.24
498;BME280;39559;48.630;9.162;2023-08-24T10:20:03;97317.72;;;27.43;88.65
498;BME280;39559;48.630;9.162;2023-08-24T10:22:35;97310.16;;;27.55;87.80
498;BME280;39559;48.630;9.162;2023-08-24T10:25:02;97310.56;;;27.67;87.89
498;BME280;39559;48.630;9.162;2023-08-24T10:27:39;97304.47;;;27.81;86.67
498;BME280;39559;48.630;9.162;2023-08-24T10:30:18;97296.72;;;27.71;85.19
498;BME280;39559;48.630;9.162;2023-08-24T10:32:45;97298.66;;;27.54;86.00
498;BME280;39559;48.630;9.162;2023-08-24T10:35:11;97303.25;;;27.69;89.25
498;BME280;39559;48.630;9.162;2023-08-24T10:37:38;97291.59;;;27.85;82.81
498;BME280;39559;48.630;9.162;2023-08-24T10:41:49;97285.03;;;27.95;85.89
498;BME280;39559;48.630;9.162;2023-08-24T10:44:33;97289.09;;;27.83;85.47
498;BME280;39559;48.630;9.162;2023-08-24T10:49:39;97282.66;;;28.15;84.13
498;BME280;39559;48.630;9.162;2023-08-24T10:52:21;97280.94;;;28.23;87.67
498;BME280;39559;48.630;9.162;2023-08-24T10:54:48;97272.09;;;28.07;87.43
498;BME280;39559;48.630;9.162;2023-08-24T10:57:22;97271.28;;;28.22;81.64
498;BME280;39559;48.630;9.162;2023-08-24T11:00:21;97272.91;;;28.23;83.76
498;BME280;39559;48.630;9.162;2023-08-24T11:05:30;97256.72;;;28.24;85.23
498;BME280;39559;48.630;9.162;2023-08-24T11:08:06;97263.75;;;28.55;85.33
498;BME280;39559;48.630;9.162;2023-08-24T11:13:14;97240.16;;;28.74;84.34
498;BME280;39559;48.630;9.162;2023-08-24T11:15:50;97233.81;;;28.75;84.74
498;BME280;39559;48.630;9.162;2023-08-24T11:18:26;97238.53;;;29.09;81.54
498;BME280;39559;48.630;9.162;2023-08-24T11:20:56;97236.19;;;29.21;80.60
498;BME280;39559;48.630;9.162;2023-08-24T11:23:24;97232.13;;;29.25;80.29
498;BME280;39559;48.630;9.162;2023-08-24T11:25:51;97229.34;;;29.33;78.95
498;BME280;39559;48.630;9.162;2023-08-24T11:29:20;97220.00;;;29.51;77.52
498;BME280;39559;48.630;9.162;2023-08-24T11:31:50;97212.78;;;29.44;78.82
498;BME280;39559;48.630;9.162;2023-08-24T11:34:17;97206.44;;;29.52;77.11
498;BME280;39559;48.630;9.162;2023-08-24T11:36:47;97202.38;;;29.78;74.04
498;BME280;39559;48.630;9.162;2023-08-24T11:39:21;97209.28;;;29.94;76.00
498;BME280;39559;48.630;9.162;2023-08-24T11:42:17;97205.00;;;29.99;77.70
498;BME280;39559;48.630;9.162;2023-08-24T11:47:12;97203.03;;;29.80;81.09
498;BME280;39559;48.630;9.162;2023-08-24T11:49:38;97193.97;;;30.16;75.00
498;BME280;39559;48.630;9.162;2023-08-24T11:53:19;97186.47;;;30.33;72.31
498;BME280;39559;48.630;9.162;2023-08-24T11:55:44;97185.19;;;30.29;76.33
498;BME280;39559;48.630;9.162;2023-08-24T11:58:16;97187.28;;;30.75;68.52
498;BME280;39559;48.630;9.162;2023-08-24T12:00:43;97184.19;;;30.78;70.76
498;BME280;39559;48.630;9.162;2023-08-24T12:03:10;97183.63;;;30.41;74.24
498;BME280;39559;48.630;9.162;2023-08-24T12:05:36;97180.69;;;30.29;72.83
498;BME280;39559;48.630;9.162;2023-08-24T12:08:02;97176.06;;;30.51;71.00
498;BME280;39559;48.630;9.162;2023-08-24T12:10:28;97172.81;;;30.62;72.78
498;BME280;39559;48.630;9.162;2023-08-24T12:13:04;97169.13;;;30.64;74.71
498;BME280;39559;48.630;9.162;2023-08-24T12:17:07;97174.19;;;30.52;69.59
498;BME280;39559;48.630;9.162;2023-08-24T12:19:42;97172.28;;;30.87;76.94
498;BME280;39559;48.630;9.162;2023-08-24T12:22:13;97164.69;;;30.97;71.73
498;BME280;39559;48.630;9.162;2023-08-24T12:24:43;97158.94;;;31.21;68.84
498;BME280;39559;48.630;9.162;2023-08-24T12:27:20;97157.31;;;31.46;68.99
498;BME280;39559;48.630;9.162;2023-08-24T12:29:48;97142.88;;;31.47;67.67
498;BME280;39559;48.630;9.162;2023-08-24T12:32:13;97132.34;;;31.72;66.41
498;BME280;39559;48.630;9.162;2023-08-24T12:34:41;97122.22;;;31.74;63.18
498;BME280;39559;48.630;9.162;2023-08-24T12:37:09;97114.94;;;31.95;64.68
498;BME280;39559;48.630;9.162;2023-08-24T12:41:03;97113.28;;;31.94;62.32
498;BME280;39559;48.630;9.162;2023-08-24T12:43:28;97107.72;;;31.95;58.99
498;BME280;39559;48.630;9.162;2023-08-24T12:45:53;97108.47;;;32.29;60.13
498;BME280;39559;48.630;9.162;2023-08-24T12:48:23;97101.81;;;32.32;62.06
498;BME280;39559;48.630;9.162;2023-08-24T12:50:49;97092.66;;;32.46;62.24
498;BME280;39559;48.630;9.162;2023-08-24T12:53:14;97092.13;;;32.31;62.18
498;BME280;39559;48.630;9.162;2023-08-24T12:55:40;97081.25;;;31.99;61.75
498;BME280;39559;48.630;9.162;2023-08-24T12:58:06;97088.75;;;32.42;58.84
498;BME280;39559;48.630;9.162;2023-08-24T13:00:32;97084.41;;;32.41;60.33
498;BME280;39559;48.630;9.162;2023-08-24T13:04:56;97088.09;;;32.60;59.48
498;BME280;39559;48.630;9.162;2023-08-24T13:07:26;97089.50;;;32.56;56.43
498;BME280;39559;48.630;9.162;2023-08-24T13:09:52;97084.09;;;32.69;54.90
498;BME280;39559;48.630;9.162;2023-08-24T13:12:17;97072.88;;;32.72;54.89
498;BME280;39559;48.630;9.162;2023-08-24T13:14:43;97066.69;;;32.72;52.19
498;BME280;39559;48.630;9.162;2023-08-24T13:17:09;97057.28;;;32.88;53.65
498;BME280;39559;48.630;9.162;2023-08-24T13:19:34;97060.53;;;32.97;56.68
498;BME280;39559;48.630;9.162;2023-08-24T13:22:00;97053.06;;;32.99;55.70
498;BME280;39559;48.630;9.162;2023-08-24T13:24:26;97059.75;;;32.89;52.80
498;BME280;39559;48.630;9.162;2023-08-24T13:28:50;97053.53;;;32.64;52.77
498;BME280;39559;48.630;9.162;2023-08-24T13:31:16;97054.03;;;32.41;53.78
498;BME280;39559;48.630;9.162;2023-08-24T13:33:45;97046.69;;;32.23;54.72
498;BME280;39559;48.630;9.162;2023-08-24T13:36:11;97032.44;;;32.22;53.74
498;BME280;39559;48.630;9.162;2023-08-24T13:38:37;97034.56;;;32.45;56.49
498;BME280;39559;48.630;9.162;2023-08-24T13:41:02;97020.66;;;32.87;55.65
498;BME280;39559;48.630;9.162;2023-08-24T13:43:29;97016.13;;;33.13;53.10
498;BME280;39559;48.630;9.162;2023-08-24T13:45:54;97009.53;;;33.08;52.70
498;BME280;39559;48.630;9.162;2023-08-24T13:48:20;97003.75;;;33.05;47.46
498;BME280;39559;48.630;9.162;2023-08-24T13:52:40;96992.66;;;33.20;49.92
498;BME280;39559;48.630;9.162;2023-08-24T13:55:06;96992.56;;;33.08;48.77
498;BME280;39559;48.630;9.162;2023-08-24T13:57:32;96996.34;;;32.75;50.78
498;BME280;39559;48.630;9.162;2023-08-24T13:59:58;96997.56;;;32.47;48.92
498;BME280;39559;48.630;9.162;2023-08-24T14:02:25;97000.38;;;32.59;49.86
498;BME280;39559;48.630;9.162;2023-08-24T14:04:51;96997.88;;;32.64;51.31
498;BME280;39559;48.630;9.162;2023-08-24T14:07:16;96994.22;;;32.52;50.20
498;BME280;39559;48.630;9.162;2023-08-24T14:09:42;96990.06;;;32.18;52.44
498;BME280;39559;48.630;9.162;2023-08-24T14:12:08;96998.53;;;32.21;55.48
498;BME280;39559;48.630;9.162;2023-08-24T14:16:35;96996.03;;;32.26;55.93
498;BME280;39559;48.630;9.162;2023-08-24T14:19:01;96986.94;;;32.59;55.52
498;BME280;39559;48.630;9.162;2023-08-24T14:21:27;96984.06;;;32.61;54.55
498;BME280;39559;48.630;9.162;2023-08-24T14:23:52;96985.47;;;32.63;53.79
498;BME280;39559;48.630;9.162;2023-08-24T14:26:18;96972.59;;;32.40;51.59
498;BME280;39559;48.630;9.162;2023-08-24T14:28:59;96977.72;;;32.42;56.48
498;BME280;39559;48.630;9.162;2023-08-24T14:31:28;96986.03;;;32.40;57.00
498;BME280;39559;48.630;9.162;2023-08-24T14:33:55;96982.03;;;32.49;58.97
498;BME280;39559;48.630;9.162;2023-08-24T14:36:21;96991.97;;;32.10;57.03